sensor_id;sensor_type;location;lat;lon;timestamp;P1;durP1;ratioP1;P2;durP2;ratioP2
41713;SDS011;27401;47.384;13.666;2024-01-15T00:01:45;0.73;;;0.47;;
41713;SDS011;27401;47.384;13.666;2024-01-15T00:04:11;0.65;;;0.50;;
41713;SDS011;27401;47.384;13.666;2024-01-15T00:06:37;0.90;;;0.52;;
41713;SDS011;27401;47.384;13.666;2024-01-15T00:09:03;0.80;;;0.65;;
41713;SDS011;27401;47.384;13.666;2024-01-15T00:11:28;0.60;;;0.60;;
41713;SDS011;27401;47.384;13.666;2024-01-15T00:13:54;0.30;;;0.30;;
41713;SDS011;27401;47.384;13.666;2024-01-15T00:16:19;1.08;;;0.73;;
41713;SDS011;27401;47.384;13.666;2024-01-15T00:18:45;1.15;;;0.50;;
41713;SDS011;27401;47.384;13.666;2024-01-15T00:21:11;0.75;;;0.60;;
41713;SDS011;27401;47.384;13.666;2024-01-15T00:23:36;0.30;;;0.30;;
41713;SDS011;27401;47.384;13.666;2024-01-15T00:26:02;1.23;;;0.38;;
41713;SDS011;27401;47.384;13.666;2024-01-15T00:28:28;0.60;;;0.60;;
41713;SDS011;27401;47.384;13.666;2024-01-15T00:30:53;1.08;;;0.70;;
41713;SDS011;27401;47.384;13.666;2024-01-15T00:33:19;1.48;;;0.82;;
41713;SDS011;27401;47.384;13.666;2024-01-15T00:35:45;1.27;;;0.77;;
41713;SDS011;27401;47.384;13.666;2024-01-15T00:38:10;1.83;;;1.10;;
41713;SDS011;27401;47.384;13.666;2024-01-15T00:40:36;0.95;;;0.77;;
41713;SDS011;27401;47.384;13.666;2024-01-15T00:43:02;1.15;;;0.82;;
41713;SDS011;27401;47.384;13.666;2024-01-15T00:45:28;0.70;;;0.70;;
41713;SDS011;27401;47.384;13.666;2024-01-15T00:47:54;1.27;;;0.90;;
41713;SDS011;27401;47.384;13.666;2024-01-15T00:50:21;1.02;;;0.75;;
41713;SDS011;27401;47.384;13.666;2024-01-15T00:52:47;1.20;;;0.90;;
41713;SDS011;27401;47.384;13.666;2024-01-15T00:55:12;0.77;;;0.40;;
41713;SDS011;27401;47.384;13.666;2024-01-15T00:57:38;1.20;;;0.80;;
41713;SDS011;27401;47.384;13.666;2024-01-15T01:00:05;1.05;;;0.85;;
41713;SDS011;27401;47.384;13.666;2024-01-15T01:02:31;0.57;;;0.40;;
41713;SDS011;27401;47.384;13.666;2024-01-15T01:04:57;0.55;;;0.55;;
41713;SDS011;27401;47.384;13.666;2024-01-15T01:07:22;2.15;;;0.60;;
41713;SDS011;27401;47.384;13.666;2024-01-15T01:09:48;0.77;;;0.63;;
41713;SDS011;27401;47.384;13.666;2024-01-15T01:12:14;0.63;;;0.60;;
41713;SDS011;27401;47.384;13.666;2024-01-15T01:14:40;0.70;;;0.30;;
41713;SDS011;27401;47.384;13.666;2024-01-15T01:17:05;0.50;;;0.40;;
41713;SDS011;27401;47.384;13.666;2024-01-15T01:19:31;0.30;;;0.30;;
41713;SDS011;27401;47.384;13.666;2024-01-15T01:21:57;0.43;;;0.43;;
41713;SDS011;27401;47.384;13.666;2024-01-15T01:24:22;0.30;;;0.30;;
41713;SDS011;27401;47.384;13.666;2024-01-15T01:26:48;0.80;;;0.40;;
41713;SDS011;27401;47.384;13.666;2024-01-15T01:29:14;0.50;;;0.50;;
41713;SDS011;27401;47.384;13.666;2024-01-15T01:31:46;0.30;;;0.30;;
41713;SDS011;27401;47.384;13.666;2024-01-15T01:36:41;0.38;;;0.35;;
41713;SDS011;27401;47.384;13.666;2024-01-15T01:39:07;0.30;;;0.30;;
41713;SDS011;27401;47.384;13.666;2024-01-15T01:41:33;0.50;;;0.50;;
41713;SDS011;27401;47.384;13.666;2024-01-15T01:43:59;0.40;;;0.40;;
41713;SDS011;27401;47.384;13.666;2024-01-15T01:46:24;8.20;;;0.52;;
41713;SDS011;27401;47.384;13.666;2024-01-15T01:48:51;0.63;;;0.60;;
41713;SDS011;27401;47.384;13.666;2024-01-15T01:51:17;0.43;;;0.32;;
41713;SDS011;27401;47.384;13.666;2024-01-15T01:53:43;0.60;;;0.50;;
41713;SDS011;27401;47.384;13.666;2024-01-15T01:56:09;1.95;;;0.68;;
41713;SDS011;27401;47.384;13.666;2024-01-15T01:58:35;3.22;;;0.55;;
41713;SDS011;27401;47.384;13.666;2024-01-15T02:01:01;0.82;;;0.70;;
41713;SDS011;27401;47.384;13.666;2024-01-15T02:03:27;0.50;;;0.50;;
41713;SDS011;27401;47.384;13.666;2024-01-15T02:05:53;1.13;;;0.60;;
41713;SDS011;27401;47.384;13.666;2024-01-15T02:08:19;0.85;;;0.30;;
41713;SDS011;27401;47.384;13.666;2024-01-15T02:10:44;0.52;;;0.50;;
41713;SDS011;27401;47.384;13.666;2024-01-15T02:13:10;0.88;;;0.43;;
41713;SDS011;27401;47.384;13.666;2024-01-15T02:15:36;0.70;;;0.50;;
41713;SDS011;27401;47.384;13.666;2024-01-15T02:18:02;0.35;;;0.35;;
41713;SDS011;27401;47.384;13.666;2024-01-15T02:20:29;1.95;;;0.68;;
41713;SDS011;27401;47.384;13.666;2024-01-15T02:23:12;0.60;;;0.40;;
41713;SDS011;27401;47.384;13.666;2024-01-15T02:25:42;0.43;;;0.40;;
41713;SDS011;27401;47.384;13.666;2024-01-15T02:28:10;0.63;;;0.30;;
41713;SDS011;27401;47.384;13.666;2024-01-15T02:30:37;0.80;;;0.30;;
41713;SDS011;27401;47.384;13.666;2024-01-15T02:33:10;0.70;;;0.40;;
41713;SDS011;27401;47.384;13.666;2024-01-15T02:35:36;1.42;;;0.50;;
41713;SDS011;27401;47.384;13.666;2024-01-15T02:38:02;0.60;;;0.40;;
41713;SDS011;27401;47.384;13.666;2024-01-15T02:40:28;0.95;;;0.40;;
41713;SDS011;27401;47.384;13.666;2024-01-15T02:42:54;0.40;;;0.30;;
41713;SDS011;27401;47.384;13.666;2024-01-15T02:45:21;0.60;;;0.40;;
41713;SDS011;27401;47.384;13.666;2024-01-15T02:47:47;0.85;;;0.50;;
41713;SDS011;27401;47.384;13.666;2024-01-15T02:50:13;0.40;;;0.40;;
41713;SDS011;27401;47.384;13.666;2024-01-15T02:52:39;0.43;;;0.43;;
41713;SDS011;27401;47.384;13.666;2024-01-15T02:55:04;0.85;;;0.40;;
41713;SDS011;27401;47.384;13.666;2024-01-15T02:57:30;0.40;;;0.40;;
41713;SDS011;27401;47.384;13.666;2024-01-15T02:59:56;2.88;;;0.40;;
41713;SDS011;27401;47.384;13.666;2024-01-15T03:02:22;0.43;;;0.40;;
41713;SDS011;27401;47.384;13.666;2024-01-15T03:04:47;0.60;;;0.50;;
41713;SDS011;27401;47.384;13.666;2024-01-15T03:07:13;0.70;;;0.50;;
41713;SDS011;27401;47.384;13.666;2024-01-15T03:09:38;0.63;;;0.40;;
41713;SDS011;27401;47.384;13.666;2024-01-15T03:12:04;0.90;;;0.55;;
41713;SDS011;27401;47.384;13.666;2024-01-15T03:14:30;1.15;;;0.50;;
41713;SDS011;27401;47.384;13.666;2024-01-15T03:16:56;0.70;;;0.70;;
41713;SDS011;27401;47.384;13.666;2024-01-15T03:19:22;2.33;;;0.70;;
41713;SDS011;27401;47.384;13.666;2024-01-15T03:21:47;0.60;;;0.60;;
41713;SDS011;27401;47.384;13.666;2024-01-15T03:24:13;0.60;;;0.50;;
41713;SDS011;27401;47.384;13.666;2024-01-15T03:26:39;0.88;;;0.35;;
41713;SDS011;27401;47.384;13.666;2024-01-15T03:29:04;0.95;;;0.38;;
41713;SDS011;27401;47.384;13.666;2024-01-15T03:31:30;0.38;;;0.38;;
41713;SDS011;27401;47.384;13.666;2024-01-15T03:33:56;0.75;;;0.40;;
41713;SDS011;27401;47.384;13.666;2024-01-15T03:36:21;0.20;;;0.20;;
41713;SDS011;27401;47.384;13.666;2024-01-15T03:38:47;0.25;;;0.20;;
41713;SDS011;27401;47.384;13.666;2024-01-15T03:41:13;0.30;;;0.30;;
41713;SDS011;27401;47.384;13.666;2024-01-15T03:43:38;0.60;;;0.30;;
41713;SDS011;27401;47.384;13.666;2024-01-15T03:46:05;0.40;;;0.40;;
41713;SDS011;27401;47.384;13.666;2024-01-15T03:48:31;0.52;;;0.32;;
41713;SDS011;27401;47.384;13.666;2024-01-15T03:50:56;0.50;;;0.45;;
41713;SDS011;27401;47.384;13.666;2024-01-15T03:53:22;0.30;;;0.30;;
41713;SDS011;27401;47.384;13.666;2024-01-15T03:55:47;0.70;;;0.50;;
41713;SDS011;27401;47.384;13.666;2024-01-15T03:58:14;0.57;;;0.40;;
41713;SDS011;27401;47.384;13.666;2024-01-15T04:00:40;0.52;;;0.40;;
41713;SDS011;27401;47.384;13.666;2024-01-15T04:03:06;0.63;;;0.40;;
41713;SDS011;27401;47.384;13.666;2024-01-15T04:05:32;0.30;;;0.30;;
41713;SDS011;27401;47.384;13.666;2024-01-15T04:07:57;0.55;;;0.50;;
41713;SDS011;27401;47.384;13.666;2024-01-15T04:10:23;1.00;;;0.40;;
41713;SDS011;27401;47.384;13.666;2024-01-15T04:12:48;0.35;;;0.30;;
41713;SDS011;27401;47.384;13.666;2024-01-15T04:15:15;0.40;;;0.40;;
41713;SDS011;27401;47.384;13.666;2024-01-15T04:17:40;0.47;;;0.43;;
41713;SDS011;27401;47.384;13.666;2024-01-15T04:20:06;0.45;;;0.40;;
41713;SDS011;27401;47.384;13.666;2024-01-15T04:22:33;0.50;;;0.40;;
41713;SDS011;27401;47.384;13.666;2024-01-15T04:25:00;0.55;;;0.40;;
41713;SDS011;27401;47.384;13.666;2024-01-15T04:27:25;1.27;;;0.50;;
41713;SDS011;27401;47.384;13.666;2024-01-15T04:29:51;0.68;;;0.40;;
41713;SDS011;27401;47.384;13.666;2024-01-15T04:32:17;0.68;;;0.50;;
41713;SDS011;27401;47.384;13.666;2024-01-15T04:34:42;1.33;;;0.68;;
41713;SDS011;27401;47.384;13.666;2024-01-15T04:37:08;1.10;;;0.50;;
41713;SDS011;27401;47.384;13.666;2024-01-15T04:39:34;0.98;;;0.40;;
41713;SDS011;27401;47.384;13.666;2024-01-15T04:41:59;0.70;;;0.50;;
41713;SDS011;27401;47.384;13.666;2024-01-15T04:44:25;1.13;;;0.65;;
41713;SDS011;27401;47.384;13.666;2024-01-15T04:46:50;0.30;;;0.30;;
41713;SDS011;27401;47.384;13.666;2024-01-15T04:49:16;0.73;;;0.50;;
41713;SDS011;27401;47.384;13.666;2024-01-15T04:51:41;0.40;;;0.40;;
41713;SDS011;27401;47.384;13.666;2024-01-15T04:54:07;1.23;;;0.52;;
41713;SDS011;27401;47.384;13.666;2024-01-15T04:56:33;0.57;;;0.57;;
41713;SDS011;27401;47.384;13.666;2024-01-15T04:58:58;0.30;;;0.30;;
41713;SDS011;27401;47.384;13.666;2024-01-15T05:01:24;0.50;;;0.50;;
41713;SDS011;27401;47.384;13.666;2024-01-15T05:03:50;1.13;;;0.45;;
41713;SDS011;27401;47.384;13.666;2024-01-15T05:06:15;0.65;;;0.40;;
41713;SDS011;27401;47.384;13.666;2024-01-15T05:08:41;0.50;;;0.50;;
41713;SDS011;27401;47.384;13.666;2024-01-15T05:11:06;1.58;;;0.70;;
41713;SDS011;27401;47.384;13.666;2024-01-15T05:13:32;1.10;;;0.95;;
41713;SDS011;27401;47.384;13.666;2024-01-15T05:15:58;0.52;;;0.52;;
41713;SDS011;27401;47.384;13.666;2024-01-15T05:18:24;1.48;;;0.70;;
41713;SDS011;27401;47.384;13.666;2024-01-15T05:20:49;0.90;;;0.70;;
41713;SDS011;27401;47.384;13.666;2024-01-15T05:23:15;1.33;;;1.00;;
41713;SDS011;27401;47.384;13.666;2024-01-15T05:25:40;1.50;;;0.80;;
41713;SDS011;27401;47.384;13.666;2024-01-15T05:28:06;0.88;;;0.70;;
41713;SDS011;27401;47.384;13.666;2024-01-15T05:30:32;1.48;;;1.05;;
41713;SDS011;27401;47.384;13.666;2024-01-15T05:32:57;2.67;;;1.40;;
41713;SDS011;27401;47.384;13.666;2024-01-15T05:35:25;33.65;;;14.60;;
41713;SDS011;27401;47.384;13.666;2024-01-15T05:37:51;12.68;;;7.88;;
41713;SDS011;27401;47.384;13.666;2024-01-15T05:40:16;51.95;;;25.20;;
41713;SDS011;27401;47.384;13.666;2024-01-15T05:42:42;104.18;;;49.97;;
41713;SDS011;27401;47.384;13.666;2024-01-15T05:45:07;156.23;;;88.05;;
41713;SDS011;27401;47.384;13.666;2024-01-15T05:47:33;129.82;;;73.90;;
41713;SDS011;27401;47.384;13.666;2024-01-15T05:50:00;104.07;;;59.25;;
41713;SDS011;27401;47.384;13.666;2024-01-15T05:52:26;36.38;;;21.55;;
41713;SDS011;27401;47.384;13.666;2024-01-15T05:54:51;6.13;;;4.47;;
41713;SDS011;27401;47.384;13.666;2024-01-15T05:57:17;2.13;;;1.92;;
41713;SDS011;27401;47.384;13.666;2024-01-15T05:59:44;1.90;;;1.50;;
41713;SDS011;27401;47.384;13.666;2024-01-15T06:02:10;1.95;;;1.42;;
41713;SDS011;27401;47.384;13.666;2024-01-15T06:04:36;2.40;;;2.20;;
41713;SDS011;27401;47.384;13.666;2024-01-15T06:07:01;2.15;;;1.30;;
41713;SDS011;27401;47.384;13.666;2024-01-15T06:09:27;2.30;;;1.95;;
41713;SDS011;27401;47.384;13.666;2024-01-15T06:11:53;1.55;;;1.45;;
41713;SDS011;27401;47.384;13.666;2024-01-15T06:14:20;2.20;;;1.77;;
41713;SDS011;27401;47.384;13.666;2024-01-15T06:16:45;56.20;;;31.13;;
41713;SDS011;27401;47.384;13.666;2024-01-15T06:19:11;11.60;;;6.90;;
41713;SDS011;27401;47.384;13.666;2024-01-15T06:21:36;3.75;;;3.15;;
41713;SDS011;27401;47.384;13.666;2024-01-15T06:24:02;2.42;;;1.67;;
41713;SDS011;27401;47.384;13.666;2024-01-15T06:26:28;3.05;;;1.60;;
41713;SDS011;27401;47.384;13.666;2024-01-15T06:28:53;2.10;;;1.50;;
41713;SDS011;27401;47.384;13.666;2024-01-15T06:31:19;1.90;;;1.50;;
41713;SDS011;27401;47.384;13.666;2024-01-15T06:33:45;1.52;;;1.17;;
41713;SDS011;27401;47.384;13.666;2024-01-15T06:36:13;1.20;;;1.10;;
41713;SDS011;27401;47.384;13.666;2024-01-15T06:38:39;1.45;;;1.25;;
41713;SDS011;27401;47.384;13.666;2024-01-15T06:41:05;2.15;;;1.13;;
41713;SDS011;27401;47.384;13.666;2024-01-15T06:43:31;1.73;;;1.20;;
41713;SDS011;27401;47.384;13.666;2024-01-15T06:45:56;2.08;;;1.40;;
41713;SDS011;27401;47.384;13.666;2024-01-15T06:48:22;1.20;;;1.00;;
41713;SDS011;27401;47.384;13.666;2024-01-15T06:50:47;2.35;;;1.45;;
41713;SDS011;27401;47.384;13.666;2024-01-15T06:53:13;1.90;;;1.73;;
41713;SDS011;27401;47.384;13.666;2024-01-15T06:55:39;2.80;;;1.80;;
41713;SDS011;27401;47.384;13.666;2024-01-15T06:58:04;2.17;;;1.42;;
41713;SDS011;27401;47.384;13.666;2024-01-15T07:00:30;1.52;;;1.42;;
41713;SDS011;27401;47.384;13.666;2024-01-15T07:02:56;1.70;;;1.30;;
41713;SDS011;27401;47.384;13.666;2024-01-15T07:05:22;1.58;;;1.30;;
41713;SDS011;27401;47.384;13.666;2024-01-15T07:07:47;1.38;;;1.17;;
41713;SDS011;27401;47.384;13.666;2024-01-15T07:10:13;3.05;;;1.55;;
41713;SDS011;27401;47.384;13.666;2024-01-15T07:12:41;1.73;;;1.50;;
41713;SDS011;27401;47.384;13.666;2024-01-15T07:15:07;1.95;;;1.85;;
41713;SDS011;27401;47.384;13.666;2024-01-15T07:17:33;1.75;;;1.65;;
41713;SDS011;27401;47.384;13.666;2024-01-15T07:19:59;2.10;;;1.60;;
41713;SDS011;27401;47.384;13.666;2024-01-15T07:22:25;2.05;;;1.55;;
41713;SDS011;27401;47.384;13.666;2024-01-15T07:24:50;2.00;;;1.80;;
41713;SDS011;27401;47.384;13.666;2024-01-15T07:27:16;1.50;;;1.40;;
41713;SDS011;27401;47.384;13.666;2024-01-15T07:29:42;3.13;;;1.50;;
41713;SDS011;27401;47.384;13.666;2024-01-15T07:32:08;3.63;;;1.40;;
41713;SDS011;27401;47.384;13.666;2024-01-15T07:34:33;2.63;;;1.70;;
41713;SDS011;27401;47.384;13.666;2024-01-15T07:36:59;2.70;;;1.40;;
41713;SDS011;27401;47.384;13.666;2024-01-15T07:39:25;2.17;;;1.63;;
41713;SDS011;27401;47.384;13.666;2024-01-15T07:41:51;2.08;;;1.40;;
41713;SDS011;27401;47.384;13.666;2024-01-15T07:44:17;2.33;;;1.67;;
41713;SDS011;27401;47.384;13.666;2024-01-15T07:46:46;1.98;;;1.60;;
41713;SDS011;27401;47.384;13.666;2024-01-15T07:49:12;2.90;;;1.48;;
41713;SDS011;27401;47.384;13.666;2024-01-15T07:51:38;2.42;;;1.77;;
41713;SDS011;27401;47.384;13.666;2024-01-15T07:54:05;2.47;;;1.90;;
41713;SDS011;27401;47.384;13.666;2024-01-15T07:56:31;1.83;;;1.52;;
41713;SDS011;27401;47.384;13.666;2024-01-15T07:58:57;2.83;;;2.38;;
41713;SDS011;27401;47.384;13.666;2024-01-15T08:01:23;11.52;;;6.70;;
41713;SDS011;27401;47.384;13.666;2024-01-15T08:03:49;5.93;;;3.83;;
41713;SDS011;27401;47.384;13.666;2024-01-15T08:06:14;3.78;;;2.40;;
41713;SDS011;27401;47.384;13.666;2024-01-15T08:08:40;5.22;;;3.25;;
41713;SDS011;27401;47.384;13.666;2024-01-15T08:11:06;25.27;;;15.23;;
41713;SDS011;27401;47.384;13.666;2024-01-15T08:13:32;10.70;;;7.25;;
41713;SDS011;27401;47.384;13.666;2024-01-15T08:15:57;9.43;;;5.93;;
41713;SDS011;27401;47.384;13.666;2024-01-15T08:18:23;5.88;;;3.05;;
41713;SDS011;27401;47.384;13.666;2024-01-15T08:20:48;4.07;;;2.50;;
41713;SDS011;27401;47.384;13.666;2024-01-15T08:23:16;3.10;;;2.20;;
41713;SDS011;27401;47.384;13.666;2024-01-15T08:25:42;2.25;;;1.77;;
41713;SDS011;27401;47.384;13.666;2024-01-15T08:28:08;2.42;;;2.00;;
41713;SDS011;27401;47.384;13.666;2024-01-15T08:30:33;5.07;;;3.50;;
41713;SDS011;27401;47.384;13.666;2024-01-15T08:32:59;4.88;;;3.25;;
41713;SDS011;27401;47.384;13.666;2024-01-15T08:35:25;3.08;;;2.80;;
41713;SDS011;27401;47.384;13.666;2024-01-15T08:37:51;2.92;;;2.63;;
41713;SDS011;27401;47.384;13.666;2024-01-15T08:40:16;2.50;;;2.25;;
41713;SDS011;27401;47.384;13.666;2024-01-15T08:42:42;5.22;;;2.95;;
41713;SDS011;27401;47.384;13.666;2024-01-15T08:45:08;3.17;;;2.05;;
41713;SDS011;27401;47.384;13.666;2024-01-15T08:47:35;4.85;;;3.42;;
41713;SDS011;27401;47.384;13.666;2024-01-15T08:50:01;5.00;;;3.72;;
41713;SDS011;27401;47.384;13.666;2024-01-15T08:52:27;5.72;;;3.95;;
41713;SDS011;27401;47.384;13.666;2024-01-15T08:54:52;5.45;;;3.08;;
41713;SDS011;27401;47.384;13.666;2024-01-15T08:57:18;5.03;;;3.10;;
41713;SDS011;27401;47.384;13.666;2024-01-15T08:59:44;5.57;;;4.05;;
41713;SDS011;27401;47.384;13.666;2024-01-15T09:02:10;2.30;;;2.10;;
41713;SDS011;27401;47.384;13.666;2024-01-15T09:04:36;6.85;;;3.30;;
41713;SDS011;27401;47.384;13.666;2024-01-15T09:07:01;9.02;;;5.15;;
41713;SDS011;27401;47.384;13.666;2024-01-15T09:09:27;8.48;;;6.03;;
41713;SDS011;27401;47.384;13.666;2024-01-15T09:11:53;8.38;;;5.05;;
41713;SDS011;27401;47.384;13.666;2024-01-15T09:14:18;4.65;;;2.40;;
41713;SDS011;27401;47.384;13.666;2024-01-15T09:16:44;2.67;;;2.00;;
41713;SDS011;27401;47.384;13.666;2024-01-15T09:19:10;2.78;;;2.10;;
41713;SDS011;27401;47.384;13.666;2024-01-15T09:21:37;1.88;;;1.75;;
41713;SDS011;27401;47.384;13.666;2024-01-15T09:24:03;3.15;;;1.85;;
41713;SDS011;27401;47.384;13.666;2024-01-15T09:26:29;4.05;;;2.53;;
41713;SDS011;27401;47.384;13.666;2024-01-15T09:28:55;2.78;;;2.22;;
41713;SDS011;27401;47.384;13.666;2024-01-15T09:31:20;2.55;;;2.35;;
41713;SDS011;27401;47.384;13.666;2024-01-15T09:33:46;3.65;;;2.30;;
41713;SDS011;27401;47.384;13.666;2024-01-15T09:36:12;2.05;;;1.80;;
41713;SDS011;27401;47.384;13.666;2024-01-15T09:38:39;2.78;;;2.13;;
41713;SDS011;27401;47.384;13.666;2024-01-15T09:41:05;2.20;;;2.00;;
41713;SDS011;27401;47.384;13.666;2024-01-15T09:43:31;3.60;;;2.22;;
41713;SDS011;27401;47.384;13.666;2024-01-15T09:45:57;3.30;;;2.67;;
41713;SDS011;27401;47.384;13.666;2024-01-15T09:48:22;3.00;;;2.70;;
41713;SDS011;27401;47.384;13.666;2024-01-15T09:50:48;3.25;;;2.42;;
41713;SDS011;27401;47.384;13.666;2024-01-15T09:53:14;4.47;;;3.10;;
41713;SDS011;27401;47.384;13.666;2024-01-15T09:55:40;14.18;;;8.70;;
41713;SDS011;27401;47.384;13.666;2024-01-15T09:58:06;16.05;;;10.07;;
41713;SDS011;27401;47.384;13.666;2024-01-15T10:00:32;3.55;;;2.78;;
41713;SDS011;27401;47.384;13.666;2024-01-15T10:03:03;4.20;;;2.25;;
41713;SDS011;27401;47.384;13.666;2024-01-15T10:05:29;3.25;;;2.38;;
41713;SDS011;27401;47.384;13.666;2024-01-15T10:07:55;3.53;;;3.22;;
41713;SDS011;27401;47.384;13.666;2024-01-15T10:10:22;3.33;;;2.60;;
41713;SDS011;27401;47.384;13.666;2024-01-15T10:12:49;5.10;;;4.22;;
41713;SDS011;27401;47.384;13.666;2024-01-15T10:15:15;3.28;;;2.40;;
41713;SDS011;27401;47.384;13.666;2024-01-15T10:17:41;3.25;;;2.55;;
41713;SDS011;27401;47.384;13.666;2024-01-15T10:20:10;2.92;;;2.15;;
41713;SDS011;27401;47.384;13.666;2024-01-15T10:22:40;7.28;;;3.60;;
41713;SDS011;27401;47.384;13.666;2024-01-15T10:25:09;6.85;;;3.47;;
41713;SDS011;27401;47.384;13.666;2024-01-15T10:27:36;5.95;;;3.17;;
41713;SDS011;27401;47.384;13.666;2024-01-15T10:30:01;4.70;;;2.50;;
41713;SDS011;27401;47.384;13.666;2024-01-15T10:32:28;3.88;;;2.85;;
41713;SDS011;27401;47.384;13.666;2024-01-15T10:34:54;3.08;;;2.45;;
41713;SDS011;27401;47.384;13.666;2024-01-15T10:37:20;2.15;;;1.95;;
41713;SDS011;27401;47.384;13.666;2024-01-15T10:39:48;4.13;;;1.90;;
41713;SDS011;27401;47.384;13.666;2024-01-15T10:42:14;2.47;;;1.88;;
41713;SDS011;27401;47.384;13.666;2024-01-15T10:44:40;2.35;;;2.03;;
41713;SDS011;27401;47.384;13.666;2024-01-15T10:47:08;2.05;;;1.88;;
41713;SDS011;27401;47.384;13.666;2024-01-15T10:49:34;1.80;;;1.60;;
41713;SDS011;27401;47.384;13.666;2024-01-15T10:52:00;2.80;;;2.08;;
41713;SDS011;27401;47.384;13.666;2024-01-15T10:54:26;1.98;;;1.75;;
41713;SDS011;27401;47.384;13.666;2024-01-15T10:56:52;2.38;;;1.88;;
41713;SDS011;27401;47.384;13.666;2024-01-15T10:59:20;1.95;;;1.75;;
41713;SDS011;27401;47.384;13.666;2024-01-15T11:01:46;1.85;;;1.55;;
41713;SDS011;27401;47.384;13.666;2024-01-15T11:04:12;4.38;;;2.80;;
41713;SDS011;27401;47.384;13.666;2024-01-15T11:06:44;3.60;;;2.50;;
41713;SDS011;27401;47.384;13.666;2024-01-15T11:09:11;3.78;;;2.65;;
41713;SDS011;27401;47.384;13.666;2024-01-15T11:11:41;4.18;;;2.60;;
41713;SDS011;27401;47.384;13.666;2024-01-15T11:14:09;3.05;;;2.75;;
41713;SDS011;27401;47.384;13.666;2024-01-15T11:16:53;2.90;;;2.53;;
41713;SDS011;27401;47.384;13.666;2024-01-15T11:19:24;4.78;;;2.60;;
41713;SDS011;27401;47.384;13.666;2024-01-15T11:21:50;3.08;;;2.67;;
41713;SDS011;27401;47.384;13.666;2024-01-15T11:24:35;3.10;;;2.47;;
41713;SDS011;27401;47.384;13.666;2024-01-15T11:27:05;3.67;;;2.70;;
41713;SDS011;27401;47.384;13.666;2024-01-15T11:29:35;4.00;;;2.40;;
41713;SDS011;27401;47.384;13.666;2024-01-15T11:32:02;3.03;;;2.72;;
41713;SDS011;27401;47.384;13.666;2024-01-15T11:37:16;3.75;;;3.30;;
41713;SDS011;27401;47.384;13.666;2024-01-15T11:39:42;6.70;;;3.80;;
41713;SDS011;27401;47.384;13.666;2024-01-15T11:42:12;5.63;;;3.20;;
41713;SDS011;27401;47.384;13.666;2024-01-15T11:44:38;5.07;;;3.20;;
41713;SDS011;27401;47.384;13.666;2024-01-15T11:47:05;3.15;;;2.85;;
41713;SDS011;27401;47.384;13.666;2024-01-15T11:52:23;4.38;;;3.50;;
41713;SDS011;27401;47.384;13.666;2024-01-15T11:57:40;5.82;;;5.22;;
41713;SDS011;27401;47.384;13.666;2024-01-15T12:00:09;4.35;;;3.28;;
41713;SDS011;27401;47.384;13.666;2024-01-15T12:02:40;3.33;;;2.78;;
41713;SDS011;27401;47.384;13.666;2024-01-15T12:05:09;4.53;;;3.45;;
41713;SDS011;27401;47.384;13.666;2024-01-15T12:07:38;3.70;;;2.88;;
41713;SDS011;27401;47.384;13.666;2024-01-15T12:10:14;4.15;;;2.78;;
41713;SDS011;27401;47.384;13.666;2024-01-15T12:15:12;4.55;;;3.78;;
41713;SDS011;27401;47.384;13.666;2024-01-15T12:17:38;4.88;;;3.42;;
41713;SDS011;27401;47.384;13.666;2024-01-15T12:20:04;3.92;;;3.03;;
41713;SDS011;27401;47.384;13.666;2024-01-15T12:22:31;4.88;;;3.13;;
41713;SDS011;27401;47.384;13.666;2024-01-15T12:24:56;3.35;;;2.92;;
41713;SDS011;27401;47.384;13.666;2024-01-15T12:27:23;4.22;;;3.20;;
41713;SDS011;27401;47.384;13.666;2024-01-15T12:29:48;3.47;;;2.63;;
41713;SDS011;27401;47.384;13.666;2024-01-15T12:32:14;4.75;;;2.90;;
41713;SDS011;27401;47.384;13.666;2024-01-15T12:34:40;4.60;;;2.63;;
41713;SDS011;27401;47.384;13.666;2024-01-15T12:37:06;6.22;;;3.03;;
41713;SDS011;27401;47.384;13.666;2024-01-15T12:39:36;4.43;;;3.05;;
41713;SDS011;27401;47.384;13.666;2024-01-15T12:42:02;5.68;;;3.47;;
41713;SDS011;27401;47.384;13.666;2024-01-15T12:44:29;5.38;;;2.88;;
41713;SDS011;27401;47.384;13.666;2024-01-15T12:46:54;5.10;;;3.80;;
41713;SDS011;27401;47.384;13.666;2024-01-15T12:49:21;6.13;;;3.58;;
41713;SDS011;27401;47.384;13.666;2024-01-15T12:51:53;11.63;;;5.57;;
41713;SDS011;27401;47.384;13.666;2024-01-15T12:54:19;11.45;;;5.63;;
41713;SDS011;27401;47.384;13.666;2024-01-15T12:56:46;12.07;;;7.32;;
41713;SDS011;27401;47.384;13.666;2024-01-15T12:59:12;29.08;;;15.45;;
41713;SDS011;27401;47.384;13.666;2024-01-15T13:01:38;18.05;;;10.23;;
41713;SDS011;27401;47.384;13.666;2024-01-15T13:04:04;55.97;;;28.83;;
41713;SDS011;27401;47.384;13.666;2024-01-15T13:06:33;87.70;;;43.15;;
41713;SDS011;27401;47.384;13.666;2024-01-15T13:09:00;36.08;;;18.95;;
41713;SDS011;27401;47.384;13.666;2024-01-15T13:11:26;17.05;;;10.98;;
41713;SDS011;27401;47.384;13.666;2024-01-15T13:13:52;11.63;;;9.80;;
41713;SDS011;27401;47.384;13.666;2024-01-15T13:16:18;9.10;;;7.93;;
41713;SDS011;27401;47.384;13.666;2024-01-15T13:18:46;7.93;;;5.70;;
41713;SDS011;27401;47.384;13.666;2024-01-15T13:21:11;7.45;;;5.70;;
41713;SDS011;27401;47.384;13.666;2024-01-15T13:23:38;14.70;;;12.13;;
41713;SDS011;27401;47.384;13.666;2024-01-15T13:26:04;58.92;;;40.00;;
41713;SDS011;27401;47.384;13.666;2024-01-15T13:28:30;30.30;;;22.45;;
41713;SDS011;27401;47.384;13.666;2024-01-15T13:30:55;11.15;;;8.70;;
41713;SDS011;27401;47.384;13.666;2024-01-15T13:33:21;11.77;;;9.38;;
41713;SDS011;27401;47.384;13.666;2024-01-15T13:35:47;9.90;;;8.23;;
41713;SDS011;27401;47.384;13.666;2024-01-15T13:38:15;7.57;;;5.72;;
41713;SDS011;27401;47.384;13.666;2024-01-15T13:40:41;6.38;;;5.30;;
41713;SDS011;27401;47.384;13.666;2024-01-15T13:43:07;13.15;;;10.90;;
41713;SDS011;27401;47.384;13.666;2024-01-15T13:45:33;8.15;;;6.63;;
41713;SDS011;27401;47.384;13.666;2024-01-15T13:48:01;16.27;;;10.77;;
41713;SDS011;27401;47.384;13.666;2024-01-15T13:50:26;25.83;;;18.52;;
41713;SDS011;27401;47.384;13.666;2024-01-15T13:52:52;14.00;;;10.27;;
41713;SDS011;27401;47.384;13.666;2024-01-15T13:55:18;9.50;;;7.20;;
41713;SDS011;27401;47.384;13.666;2024-01-15T13:57:44;7.28;;;5.07;;
41713;SDS011;27401;47.384;13.666;2024-01-15T14:00:09;33.80;;;21.08;;
41713;SDS011;27401;47.384;13.666;2024-01-15T14:02:37;7.47;;;5.15;;
41713;SDS011;27401;47.384;13.666;2024-01-15T14:05:03;6.75;;;4.18;;
41713;SDS011;27401;47.384;13.666;2024-01-15T14:07:28;5.57;;;3.13;;
41713;SDS011;27401;47.384;13.666;2024-01-15T14:09:54;4.55;;;3.25;;
41713;SDS011;27401;47.384;13.666;2024-01-15T14:12:19;78.50;;;47.88;;
41713;SDS011;27401;47.384;13.666;2024-01-15T14:14:45;6.57;;;4.47;;
41713;SDS011;27401;47.384;13.666;2024-01-15T14:17:11;2.88;;;2.22;;
41713;SDS011;27401;47.384;13.666;2024-01-15T14:19:37;1.88;;;1.38;;
41713;SDS011;27401;47.384;13.666;2024-01-15T14:22:02;3.50;;;2.03;;
41713;SDS011;27401;47.384;13.666;2024-01-15T14:24:28;2.30;;;2.08;;
41713;SDS011;27401;47.384;13.666;2024-01-15T14:26:54;7.03;;;3.38;;
41713;SDS011;27401;47.384;13.666;2024-01-15T14:29:19;4.65;;;2.40;;
41713;SDS011;27401;47.384;13.666;2024-01-15T14:31:47;6.88;;;2.50;;
41713;SDS011;27401;47.384;13.666;2024-01-15T14:34:13;2.65;;;1.70;;
41713;SDS011;27401;47.384;13.666;2024-01-15T14:36:38;4.95;;;2.15;;
41713;SDS011;27401;47.384;13.666;2024-01-15T14:39:04;9.32;;;3.80;;
41713;SDS011;27401;47.384;13.666;2024-01-15T14:41:30;1.60;;;1.10;;